Pagrindinis puslapis
METAR-TAF:

METAR-TAF

Oro uostai :

Damaskas, Sirija

platuma: 33-25N, ilguma: 036-31E, Aukštis: 608 m

Dabartinis oras

Ataskaita buvo paskelbta 15 minutes, ne 22:00 UTC
Vėjas 10 kt iš Pietvakarių
Temperatūra 21°C
Drėgmė 60%
Slėgis 1013 hPa
Matomumas 10 km arba daugiau
nėra debesų žemiau 1500 m ir nėra kamuolinių lietaus debesų

METAR: OSDI 202200Z 22010KT CAVOK 21/13 Q1013

Laikas: 01:15 (22:15 UTC)

Prognozė

Prognozė galioja nuo 20 metu 18 UTC su 21 metu 24 UTC
Vėjas 15 kt iš Vakarų/Pietvakarių su gūsio iki 25 kt
Matomumas 10 km arba daugiau
Mažai debesys ne aukštis 3000 ft
Laikinai
nuo 20 metu 20 UTC su 21 metu 10 UTC
Vėjas 10 kt iš Pietvakarių
Matomumas 10 km arba daugiau
nėra debesų žemiau 1500 m ir nėra kamuolinių lietaus debesų

TAF: OSDI 2018/2124 24015G25KT 9999 FEW030 TEMPO 2020/2110 22010KT CAVOK

Orai ataskaitas ir orų prognozės (METAR, TAF).

turimą stotys yra geltonos ir raudonos taškus žemėlapyje.

Perkelti pele per norėdami pamatyti stoties vardą.

Tada spustelėkite, norėdami matyti oro stebėjimo ir prognozės.

Norėdami pakeisti žemėlapį: spustelėkite ant žalios mygtukų su juodo kryžiaus žemyn,; žalią mygtuką su brūkšneliu, jei norite nutolinti; arba žalių rodyklių gretimoms žemėlapius.


METAR-TAF: